METAR Data
IDs: Format: Raw Decoded Include TAF

Data at: 0158 UTC 01 Mar 2021

VGHS 010100Z 00000KT 3100 HZ FEW015 SCT100 24/20 Q1011 TEMPO S/VIS 2500M